sensor_id;sensor_type;location;lat;lon;timestamp;pressure;altitude;pressure_sealevel;temperature;humidity
18022;BME280;9136;48.822;7.966;2022-12-07T00:01:42;100447.66;;;3.55;100.00
18022;BME280;9136;48.822;7.966;2022-12-07T00:04:31;100431.22;;;3.47;100.00
18022;BME280;9136;48.822;7.966;2022-12-07T00:07:19;100443.34;;;3.52;100.00
18022;BME280;9136;48.822;7.966;2022-12-07T00:10:08;100439.91;;;3.50;100.00
18022;BME280;9136;48.822;7.966;2022-12-07T00:12:56;100438.16;;;3.49;100.00
18022;BME280;9136;48.822;7.966;2022-12-07T00:15:44;100407.88;;;3.31;100.00
18022;BME280;9136;48.822;7.966;2022-12-07T00:18:32;100448.56;;;3.49;100.00
18022;BME280;9136;48.822;7.966;2022-12-07T00:21:21;100422.56;;;3.28;100.00
18022;BME280;9136;48.822;7.966;2022-12-07T00:24:09;100423.47;;;3.39;100.00
18022;BME280;9136;48.822;7.966;2022-12-07T00:26:59;100439.03;;;3.39;100.00
18022;BME280;9136;48.822;7.966;2022-12-07T00:29:46;100425.19;;;3.22;100.00
18022;BME280;9136;48.822;7.966;2022-12-07T00:32:34;100444.22;;;3.37;100.00
18022;BME280;9136;48.822;7.966;2022-12-07T00:35:22;100399.22;;;3.20;100.00
18022;BME280;9136;48.822;7.966;2022-12-07T00:38:10;100436.44;;;3.43;100.00
18022;BME280;9136;48.822;7.966;2022-12-07T00:40:58;100422.56;;;3.28;100.00
18022;BME280;9136;48.822;7.966;2022-12-07T00:43:50;100418.28;;;3.30;100.00
18022;BME280;9136;48.822;7.966;2022-12-07T00:46:38;100426.03;;;3.33;100.00
18022;BME280;9136;48.822;7.966;2022-12-07T00:49:25;100434.69;;;3.41;100.00
18022;BME280;9136;48.822;7.966;2022-12-07T00:52:13;100414.78;;;3.37;100.00
18022;BME280;9136;48.822;7.966;2022-12-07T00:55:02;100453.75;;;3.54;100.00
18022;BME280;9136;48.822;7.966;2022-12-07T00:57:51;100405.28;;;3.31;100.00
18022;BME280;9136;48.822;7.966;2022-12-07T01:00:42;100431.25;;;3.50;100.00
18022;BME280;9136;48.822;7.966;2022-12-07T01:03:30;100416.53;;;3.44;100.00
18022;BME280;9136;48.822;7.966;2022-12-07T01:06:19;100406.13;;;3.33;100.00
18022;BME280;9136;48.822;7.966;2022-12-07T01:09:08;100432.13;;;3.49;100.00
18022;BME280;9136;48.822;7.966;2022-12-07T01:11:55;100407.00;;;3.38;100.00
18022;BME280;9136;48.822;7.966;2022-12-07T01:14:45;100414.78;;;3.41;100.00
18022;BME280;9136;48.822;7.966;2022-12-07T01:17:34;100400.94;;;3.24;100.00
18022;BME280;9136;48.822;7.966;2022-12-07T01:20:22;100422.59;;;3.34;100.00
18022;BME280;9136;48.822;7.966;2022-12-07T01:23:10;100433.81;;;3.43;100.00
18022;BME280;9136;48.822;7.966;2022-12-07T01:25:59;100403.56;;;3.30;100.00
18022;BME280;9136;48.822;7.966;2022-12-07T01:28:48;100435.56;;;3.51;100.00
18022;BME280;9136;48.822;7.966;2022-12-07T01:31:36;100395.75;;;3.27;100.00
18022;BME280;9136;48.822;7.966;2022-12-07T01:34:25;100416.53;;;3.29;100.00
18022;BME280;9136;48.822;7.966;2022-12-07T01:37:13;100443.38;;;3.31;100.00
18022;BME280;9136;48.822;7.966;2022-12-07T01:40:00;100419.09;;;3.16;100.00
18022;BME280;9136;48.822;7.966;2022-12-07T01:42:48;100435.56;;;3.26;100.00
18022;BME280;9136;48.822;7.966;2022-12-07T01:45:40;100413.91;;;3.04;100.00
18022;BME280;9136;48.822;7.966;2022-12-07T01:48:32;100406.13;;;2.95;100.00
18022;BME280;9136;48.822;7.966;2022-12-07T01:51:22;100438.13;;;2.97;100.00
18022;BME280;9136;48.822;7.966;2022-12-07T01:54:11;100457.19;;;3.01;100.00
18022;BME280;9136;48.822;7.966;2022-12-07T01:57:01;100426.00;;;2.98;100.00
18022;BME280;9136;48.822;7.966;2022-12-07T01:59:51;100423.44;;;3.08;100.00
18022;BME280;9136;48.822;7.966;2022-12-07T02:02:43;100437.28;;;3.24;100.00
18022;BME280;9136;48.822;7.966;2022-12-07T02:05:34;100434.69;;;3.27;100.00
18022;BME280;9136;48.822;7.966;2022-12-07T02:08:24;100445.94;;;3.34;100.00
18022;BME280;9136;48.822;7.966;2022-12-07T02:11:12;100422.56;;;2.99;100.00
18022;BME280;9136;48.822;7.966;2022-12-07T02:14:00;100412.19;;;2.91;100.00
18022;BME280;9136;48.822;7.966;2022-12-07T02:17:00;100430.38;;;3.12;100.00
18022;BME280;9136;48.822;7.966;2022-12-07T02:20:11;100432.97;;;3.25;100.00
18022;BME280;9136;48.822;7.966;2022-12-07T02:23:25;100431.25;;;3.21;100.00
18022;BME280;9136;48.822;7.966;2022-12-07T02:26:38;100396.59;;;3.06;100.00
18022;BME280;9136;48.822;7.966;2022-12-07T02:29:34;100419.97;;;3.17;100.00
18022;BME280;9136;48.822;7.966;2022-12-07T02:32:27;100421.72;;;3.03;100.00
18022;BME280;9136;48.822;7.966;2022-12-07T02:35:19;100431.22;;;3.08;100.00
18022;BME280;9136;48.822;7.966;2022-12-07T02:38:13;100429.50;;;3.15;100.00
18022;BME280;9136;48.822;7.966;2022-12-07T02:41:06;100394.91;;;2.99;100.00
18022;BME280;9136;48.822;7.966;2022-12-07T02:43:57;100395.75;;;2.97;100.00
18022;BME280;9136;48.822;7.966;2022-12-07T02:46:52;100397.50;;;3.01;100.00
18022;BME280;9136;48.822;7.966;2022-12-07T02:49:41;100436.44;;;3.22;100.00
18022;BME280;9136;48.822;7.966;2022-12-07T02:52:29;100431.22;;;3.14;100.00
18022;BME280;9136;48.822;7.966;2022-12-07T02:55:20;100388.81;;;2.94;100.00
18022;BME280;9136;48.822;7.966;2022-12-07T02:58:21;100387.94;;;2.98;100.00
18022;BME280;9136;48.822;7.966;2022-12-07T03:01:15;100413.06;;;3.05;100.00
18022;BME280;9136;48.822;7.966;2022-12-07T03:04:23;100413.94;;;3.10;100.00
18022;BME280;9136;48.822;7.966;2022-12-07T03:07:24;100416.53;;;3.13;100.00
18022;BME280;9136;48.822;7.966;2022-12-07T03:10:22;100425.19;;;3.22;100.00
18022;BME280;9136;48.822;7.966;2022-12-07T03:13:19;100396.63;;;3.12;100.00
18022;BME280;9136;48.822;7.966;2022-12-07T03:16:14;100419.13;;;3.10;100.00
18022;BME280;9136;48.822;7.966;2022-12-07T03:19:06;100396.59;;;2.94;100.00
18022;BME280;9136;48.822;7.966;2022-12-07T03:21:59;100420.84;;;3.04;100.00
18022;BME280;9136;48.822;7.966;2022-12-07T03:24:52;100434.69;;;3.13;100.00
18022;BME280;9136;48.822;7.966;2022-12-07T03:27:44;100410.44;;;2.98;100.00
18022;BME280;9136;48.822;7.966;2022-12-07T03:30:39;100389.69;;;2.95;100.00
18022;BME280;9136;48.822;7.966;2022-12-07T03:33:33;100410.44;;;2.93;100.00
18022;BME280;9136;48.822;7.966;2022-12-07T03:36:26;100406.94;;;2.79;100.00
18022;BME280;9136;48.822;7.966;2022-12-07T03:39:22;100425.97;;;2.78;100.00
18022;BME280;9136;48.822;7.966;2022-12-07T03:42:12;100395.66;;;2.57;100.00
18022;BME280;9136;48.822;7.966;2022-12-07T03:45:01;100380.09;;;2.42;100.00
18022;BME280;9136;48.822;7.966;2022-12-07T03:47:57;100395.66;;;2.43;100.00
18022;BME280;9136;48.822;7.966;2022-12-07T03:50:51;100393.03;;;2.36;100.00
18022;BME280;9136;48.822;7.966;2022-12-07T03:53:44;100405.16;;;2.43;100.00
18022;BME280;9136;48.822;7.966;2022-12-07T03:56:36;100396.50;;;2.48;100.00
18022;BME280;9136;48.822;7.966;2022-12-07T03:59:24;100407.78;;;2.53;100.00
18022;BME280;9136;48.822;7.966;2022-12-07T04:02:13;100363.66;;;2.34;100.00
18022;BME280;9136;48.822;7.966;2022-12-07T04:05:01;100398.25;;;2.58;100.00
18022;BME280;9136;48.822;7.966;2022-12-07T04:07:50;100427.72;;;2.74;100.00
18022;BME280;9136;48.822;7.966;2022-12-07T04:10:38;100397.41;;;2.52;100.00
18022;BME280;9136;48.822;7.966;2022-12-07T04:13:27;100403.44;;;2.55;100.00
18022;BME280;9136;48.822;7.966;2022-12-07T04:16:15;100384.47;;;2.61;100.00
18022;BME280;9136;48.822;7.966;2022-12-07T04:19:03;100380.09;;;2.60;100.00
18022;BME280;9136;48.822;7.966;2022-12-07T04:21:51;100393.13;;;2.77;100.00
18022;BME280;9136;48.822;7.966;2022-12-07T04:24:39;100379.28;;;2.72;100.00
18022;BME280;9136;48.822;7.966;2022-12-07T04:27:26;100382.69;;;2.58;100.00
18022;BME280;9136;48.822;7.966;2022-12-07T04:30:16;100394.00;;;2.71;100.00
18022;BME280;9136;48.822;7.966;2022-12-07T04:33:03;100362.84;;;2.51;100.00
18022;BME280;9136;48.822;7.966;2022-12-07T04:35:51;100361.06;;;2.44;100.00
18022;BME280;9136;48.822;7.966;2022-12-07T04:38:42;100371.41;;;2.38;100.00
18022;BME280;9136;48.822;7.966;2022-12-07T04:41:30;100372.28;;;2.33;100.00
18022;BME280;9136;48.822;7.966;2022-12-07T04:44:18;100392.19;;;2.47;100.00
18022;BME280;9136;48.822;7.966;2022-12-07T04:47:08;100367.06;;;2.29;100.00
18022;BME280;9136;48.822;7.966;2022-12-07T04:49:57;100411.25;;;2.63;100.00
18022;BME280;9136;48.822;7.966;2022-12-07T04:52:44;100380.94;;;2.48;100.00
18022;BME280;9136;48.822;7.966;2022-12-07T04:55:32;100388.75;;;2.56;100.00
18022;BME280;9136;48.822;7.966;2022-12-07T04:58:20;100387.91;;;2.69;100.00
18022;BME280;9136;48.822;7.966;2022-12-07T05:01:08;100399.16;;;2.77;100.00
18022;BME280;9136;48.822;7.966;2022-12-07T05:03:57;100387.06;;;2.75;100.00
18022;BME280;9136;48.822;7.966;2022-12-07T05:06:45;100398.31;;;2.74;100.00
18022;BME280;9136;48.822;7.966;2022-12-07T05:09:34;100405.19;;;2.69;100.00
18022;BME280;9136;48.822;7.966;2022-12-07T05:12:22;100408.66;;;2.65;100.00
18022;BME280;9136;48.822;7.966;2022-12-07T05:15:10;100416.47;;;2.75;100.00
18022;BME280;9136;48.822;7.966;2022-12-07T05:17:57;100393.97;;;2.62;100.00
18022;BME280;9136;48.822;7.966;2022-12-07T05:20:47;100416.44;;;2.69;100.00
18022;BME280;9136;48.822;7.966;2022-12-07T05:23:35;100404.31;;;2.59;100.00
18022;BME280;9136;48.822;7.966;2022-12-07T05:26:24;100415.53;;;2.47;100.00
18022;BME280;9136;48.822;7.966;2022-12-07T05:29:13;100367.00;;;2.11;100.00
18022;BME280;9136;48.822;7.966;2022-12-07T05:32:07;100414.63;;;2.35;100.00
18022;BME280;9136;48.822;7.966;2022-12-07T05:34:55;100386.91;;;2.15;100.00
18022;BME280;9136;48.822;7.966;2022-12-07T05:37:45;100393.84;;;2.25;100.00
18022;BME280;9136;48.822;7.966;2022-12-07T05:40:33;100393.00;;;2.26;100.00
18022;BME280;9136;48.822;7.966;2022-12-07T05:43:21;100390.41;;;2.31;100.00
18022;BME280;9136;48.822;7.966;2022-12-07T05:46:09;100412.03;;;2.35;100.00
18022;BME280;9136;48.822;7.966;2022-12-07T05:48:57;100379.13;;;2.18;100.00
18022;BME280;9136;48.822;7.966;2022-12-07T05:51:47;100375.69;;;2.16;100.00
18022;BME280;9136;48.822;7.966;2022-12-07T05:54:36;100409.44;;;2.39;100.00
18022;BME280;9136;48.822;7.966;2022-12-07T05:57:26;100368.75;;;2.15;100.00
18022;BME280;9136;48.822;7.966;2022-12-07T06:00:14;100383.47;;;2.27;100.00
18022;BME280;9136;48.822;7.966;2022-12-07T06:03:01;100361.84;;;2.19;100.00
18022;BME280;9136;48.822;7.966;2022-12-07T06:05:49;100400.84;;;2.48;100.00
18022;BME280;9136;48.822;7.966;2022-12-07T06:08:37;100382.69;;;2.43;100.00
18022;BME280;9136;48.822;7.966;2022-12-07T06:11:27;100411.22;;;2.54;100.00
18022;BME280;9136;48.822;7.966;2022-12-07T06:14:32;100386.13;;;2.48;100.00
18022;BME280;9136;48.822;7.966;2022-12-07T06:17:20;100406.94;;;2.70;100.00
18022;BME280;9136;48.822;7.966;2022-12-07T06:20:09;100389.66;;;2.63;100.00
18022;BME280;9136;48.822;7.966;2022-12-07T06:22:56;100389.59;;;2.49;100.00
18022;BME280;9136;48.822;7.966;2022-12-07T06:25:45;100376.59;;;2.34;100.00
18022;BME280;9136;48.822;7.966;2022-12-07T06:28:34;100389.56;;;2.35;100.00
18022;BME280;9136;48.822;7.966;2022-12-07T06:31:24;100401.69;;;2.42;100.00
18022;BME280;9136;48.822;7.966;2022-12-07T06:34:13;100408.59;;;2.45;100.00
18022;BME280;9136;48.822;7.966;2022-12-07T06:37:01;100388.69;;;2.38;100.00
18022;BME280;9136;48.822;7.966;2022-12-07T06:39:57;100423.38;;;2.61;100.00
18022;BME280;9136;48.822;7.966;2022-12-07T06:42:48;100403.44;;;2.45;100.00
18022;BME280;9136;48.822;7.966;2022-12-07T06:45:39;100409.47;;;2.44;100.00
18022;BME280;9136;48.822;7.966;2022-12-07T06:48:27;100422.47;;;2.54;100.00
18022;BME280;9136;48.822;7.966;2022-12-07T06:51:15;100405.16;;;2.50;100.00
18022;BME280;9136;48.822;7.966;2022-12-07T06:54:03;100384.38;;;2.38;100.00
18022;BME280;9136;48.822;7.966;2022-12-07T06:56:51;100386.09;;;2.39;100.00
18022;BME280;9136;48.822;7.966;2022-12-07T06:59:38;100398.25;;;2.48;100.00
18022;BME280;9136;48.822;7.966;2022-12-07T07:02:28;100402.59;;;2.53;100.00
18022;BME280;9136;48.822;7.966;2022-12-07T07:05:15;100409.50;;;2.56;100.00
18022;BME280;9136;48.822;7.966;2022-12-07T07:08:04;100429.44;;;2.72;100.00
18022;BME280;9136;48.822;7.966;2022-12-07T07:10:51;100424.25;;;2.75;100.00
18022;BME280;9136;48.822;7.966;2022-12-07T07:13:39;100404.31;;;2.59;100.00
18022;BME280;9136;48.822;7.966;2022-12-07T07:16:30;100419.91;;;2.68;100.00
18022;BME280;9136;48.822;7.966;2022-12-07T07:19:23;100426.88;;;2.80;100.00
18022;BME280;9136;48.822;7.966;2022-12-07T07:22:10;100410.38;;;2.69;100.00
18022;BME280;9136;48.822;7.966;2022-12-07T07:24:58;100396.56;;;2.67;100.00
18022;BME280;9136;48.822;7.966;2022-12-07T07:27:53;100398.31;;;2.78;100.00
18022;BME280;9136;48.822;7.966;2022-12-07T07:30:49;100439.00;;;2.92;100.00
18022;BME280;9136;48.822;7.966;2022-12-07T07:33:37;100419.09;;;2.83;100.00
18022;BME280;9136;48.822;7.966;2022-12-07T07:36:26;100424.28;;;2.98;100.00
18022;BME280;9136;48.822;7.966;2022-12-07T07:39:14;100428.59;;;2.88;100.00
18022;BME280;9136;48.822;7.966;2022-12-07T07:42:02;100410.41;;;2.75;100.00
18022;BME280;9136;48.822;7.966;2022-12-07T07:44:50;100425.09;;;2.77;100.00
18022;BME280;9136;48.822;7.966;2022-12-07T07:47:38;100398.25;;;2.58;100.00
18022;BME280;9136;48.822;7.966;2022-12-07T07:50:26;100410.44;;;2.82;100.00
18022;BME280;9136;48.822;7.966;2022-12-07T07:53:15;100406.09;;;2.84;100.00
18022;BME280;9136;48.822;7.966;2022-12-07T07:56:03;100415.63;;;2.96;100.00
18022;BME280;9136;48.822;7.966;2022-12-07T08:01:27;100433.81;;;3.01;100.00
18022;BME280;9136;48.822;7.966;2022-12-07T08:04:15;100414.75;;;2.97;100.00
18022;BME280;9136;48.822;7.966;2022-12-07T08:07:03;100448.56;;;3.20;100.00
18022;BME280;9136;48.822;7.966;2022-12-07T08:09:52;100431.22;;;3.07;100.00
18022;BME280;9136;48.822;7.966;2022-12-07T08:12:41;100454.59;;;3.22;100.00
18022;BME280;9136;48.822;7.966;2022-12-07T08:15:45;100407.00;;;3.08;100.00
18022;BME280;9136;48.822;7.966;2022-12-07T08:18:35;100426.03;;;3.16;100.00
18022;BME280;9136;48.822;7.966;2022-12-07T08:21:23;100404.41;;;3.11;100.00
18022;BME280;9136;48.822;7.966;2022-12-07T08:24:10;100442.50;;;3.29;100.00
18022;BME280;9136;48.822;7.966;2022-12-07T08:27:00;100455.47;;;3.39;100.00
18022;BME280;9136;48.822;7.966;2022-12-07T08:29:47;100428.66;;;3.19;100.00
18022;BME280;9136;48.822;7.966;2022-12-07T08:32:35;100423.44;;;3.08;100.00
18022;BME280;9136;48.822;7.966;2022-12-07T08:35:23;100450.28;;;3.32;100.00
18022;BME280;9136;48.822;7.966;2022-12-07T08:38:11;100445.06;;;3.47;100.00
18022;BME280;9136;48.822;7.966;2022-12-07T08:40:59;100437.28;;;3.36;100.00
18022;BME280;9136;48.822;7.966;2022-12-07T08:43:48;100463.25;;;3.45;100.00
18022;BME280;9136;48.822;7.966;2022-12-07T08:46:38;100434.69;;;3.23;100.00
18022;BME280;9136;48.822;7.966;2022-12-07T08:49:32;100428.66;;;3.31;100.00
18022;BME280;9136;48.822;7.966;2022-12-07T08:52:22;100430.38;;;3.29;100.00
18022;BME280;9136;48.822;7.966;2022-12-07T08:55:11;100458.94;;;3.51;100.00
18022;BME280;9136;48.822;7.966;2022-12-07T09:01:10;100465.00;;;3.60;100.00
18022;BME280;9136;48.822;7.966;2022-12-07T09:03:58;100448.56;;;3.49;100.00
18022;BME280;9136;48.822;7.966;2022-12-07T09:06:46;100426.94;;;3.38;100.00
18022;BME280;9136;48.822;7.966;2022-12-07T09:09:34;100460.69;;;3.38;100.00
18022;BME280;9136;48.822;7.966;2022-12-07T09:12:22;100460.69;;;3.49;100.00
18022;BME280;9136;48.822;7.966;2022-12-07T09:15:10;100464.13;;;3.43;100.00
18022;BME280;9136;48.822;7.966;2022-12-07T09:17:59;100431.25;;;3.21;100.00
18022;BME280;9136;48.822;7.966;2022-12-07T09:20:49;100429.50;;;3.20;100.00
18022;BME280;9136;48.822;7.966;2022-12-07T09:23:36;100456.34;;;3.38;100.00
18022;BME280;9136;48.822;7.966;2022-12-07T09:26:24;100450.25;;;3.26;100.00
18022;BME280;9136;48.822;7.966;2022-12-07T09:29:12;100457.22;;;3.40;100.00
18022;BME280;9136;48.822;7.966;2022-12-07T09:32:00;100436.44;;;3.24;100.00
18022;BME280;9136;48.822;7.966;2022-12-07T09:34:49;100445.06;;;3.36;100.00
18022;BME280;9136;48.822;7.966;2022-12-07T09:41:09;100421.72;;;3.30;100.00
18022;BME280;9136;48.822;7.966;2022-12-07T09:44:03;100435.56;;;3.37;100.00
18022;BME280;9136;48.822;7.966;2022-12-07T09:46:51;100469.34;;;3.58;100.00
18022;BME280;9136;48.822;7.966;2022-12-07T09:49:39;100432.09;;;3.58;100.00
18022;BME280;9136;48.822;7.966;2022-12-07T09:52:29;100455.47;;;3.79;100.00
18022;BME280;9136;48.822;7.966;2022-12-07T09:55:22;100448.53;;;3.80;100.00
18022;BME280;9136;48.822;7.966;2022-12-07T09:58:19;100454.59;;;3.74;100.00
18022;BME280;9136;48.822;7.966;2022-12-07T10:01:12;100432.09;;;3.58;100.00
18022;BME280;9136;48.822;7.966;2022-12-07T10:04:06;100426.88;;;3.64;100.00
18022;BME280;9136;48.822;7.966;2022-12-07T10:06:57;100409.59;;;3.54;100.00
18022;BME280;9136;48.822;7.966;2022-12-07T10:09:46;100420.84;;;3.62;100.00
18022;BME280;9136;48.822;7.966;2022-12-07T10:12:52;100444.16;;;3.94;100.00
18022;BME280;9136;48.822;7.966;2022-12-07T10:15:45;100406.97;;;3.72;100.00
18022;BME280;9136;48.822;7.966;2022-12-07T10:18:36;100415.66;;;3.68;100.00
18022;BME280;9136;48.822;7.966;2022-12-07T10:21:26;100437.22;;;3.94;100.00
18022;BME280;9136;48.822;7.966;2022-12-07T10:24:14;100428.59;;;3.82;100.00
18022;BME280;9136;48.822;7.966;2022-12-07T10:27:04;100414.75;;;3.73;100.00
18022;BME280;9136;48.822;7.966;2022-12-07T10:29:53;100398.31;;;3.64;100.00
18022;BME280;9136;48.822;7.966;2022-12-07T10:32:41;100400.91;;;3.78;100.00
18022;BME280;9136;48.822;7.966;2022-12-07T10:35:29;100418.22;;;3.80;100.00
18022;BME280;9136;48.822;7.966;2022-12-07T10:38:17;100411.25;;;3.84;100.00
18022;BME280;9136;48.822;7.966;2022-12-07T10:41:06;100407.78;;;3.98;100.00
18022;BME280;9136;48.822;7.966;2022-12-07T10:43:57;100401.69;;;4.06;100.00
18022;BME280;9136;48.822;7.966;2022-12-07T10:46:57;100401.69;;;4.07;100.00
18022;BME280;9136;48.822;7.966;2022-12-07T10:53:32;100395.66;;;3.97;100.00
18022;BME280;9136;48.822;7.966;2022-12-07T10:56:35;100406.88;;;4.02;100.00
18022;BME280;9136;48.822;7.966;2022-12-07T11:03:30;100404.28;;;4.09;100.00
18022;BME280;9136;48.822;7.966;2022-12-07T11:06:29;100371.38;;;3.94;100.00
18022;BME280;9136;48.822;7.966;2022-12-07T11:10:41;100404.22;;;4.22;100.00
18022;BME280;9136;48.822;7.966;2022-12-07T11:16:26;100379.16;;;4.06;100.00
18022;BME280;9136;48.822;7.966;2022-12-07T11:19:42;100393.84;;;4.18;100.00
18022;BME280;9136;48.822;7.966;2022-12-07T11:22:43;100402.50;;;4.14;100.00
18022;BME280;9136;48.822;7.966;2022-12-07T11:25:38;100380.00;;;4.16;100.00
18022;BME280;9136;48.822;7.966;2022-12-07T11:28:43;100383.44;;;4.19;100.00
18022;BME280;9136;48.822;7.966;2022-12-07T11:31:45;100352.25;;;4.12;100.00
18022;BME280;9136;48.822;7.966;2022-12-07T11:34:48;100344.50;;;4.06;100.00
18022;BME280;9136;48.822;7.966;2022-12-07T11:37:38;100355.69;;;4.26;100.00
18022;BME280;9136;48.822;7.966;2022-12-07T11:40:30;100347.91;;;4.14;100.00
18022;BME280;9136;48.822;7.966;2022-12-07T11:43:23;100353.94;;;4.25;100.00
18022;BME280;9136;48.822;7.966;2022-12-07T11:46:15;100324.56;;;4.05;100.00
18022;BME280;9136;48.822;7.966;2022-12-07T11:49:10;100351.25;;;4.40;100.00
18022;BME280;9136;48.822;7.966;2022-12-07T11:52:04;100367.72;;;4.39;100.00
18022;BME280;9136;48.822;7.966;2022-12-07T11:54:57;100348.66;;;4.40;100.00
18022;BME280;9136;48.822;7.966;2022-12-07T11:57:51;100321.81;;;4.37;100.00
18022;BME280;9136;48.822;7.966;2022-12-07T12:00:44;100316.69;;;4.21;100.00
18022;BME280;9136;48.822;7.966;2022-12-07T12:03:34;100315.75;;;4.35;100.00
18022;BME280;9136;48.822;7.966;2022-12-07T12:06:24;100343.59;;;4.17;100.00
18022;BME280;9136;48.822;7.966;2022-12-07T12:09:15;100362.59;;;4.24;100.00
18022;BME280;9136;48.822;7.966;2022-12-07T12:12:25;100318.47;;;4.10;100.00
18022;BME280;9136;48.822;7.966;2022-12-07T12:15:27;100343.53;;;4.23;100.00
18022;BME280;9136;48.822;7.966;2022-12-07T12:18:30;100345.19;;;4.38;100.00
18022;BME280;9136;48.822;7.966;2022-12-07T12:21:28;100344.31;;;4.39;100.00
18022;BME280;9136;48.822;7.966;2022-12-07T12:24:22;100308.88;;;4.26;100.00
18022;BME280;9136;48.822;7.966;2022-12-07T12:27:21;100331.28;;;4.45;100.00
18022;BME280;9136;48.822;7.966;2022-12-07T12:30:28;100307.13;;;4.22;100.00
18022;BME280;9136;48.822;7.966;2022-12-07T12:33:22;100306.22;;;4.35;100.00
18022;BME280;9136;48.822;7.966;2022-12-07T12:36:19;100321.78;;;4.38;100.00
18022;BME280;9136;48.822;7.966;2022-12-07T12:39:11;100320.03;;;4.42;100.00
18022;BME280;9136;48.822;7.966;2022-12-07T12:42:02;100320.97;;;4.28;100.00
18022;BME280;9136;48.822;7.966;2022-12-07T12:45:17;100295.91;;;4.20;100.00
18022;BME280;9136;48.822;7.966;2022-12-07T12:48:27;100310.53;;;4.33;100.00
18022;BME280;9136;48.822;7.966;2022-12-07T12:51:38;100319.16;;;4.43;100.00
18022;BME280;9136;48.822;7.966;2022-12-07T12:54:27;100325.22;;;4.46;100.00
18022;BME280;9136;48.822;7.966;2022-12-07T12:57:21;100308.72;;;4.47;100.00
18022;BME280;9136;48.822;7.966;2022-12-07T13:00:17;100297.44;;;4.48;100.00
18022;BME280;9136;48.822;7.966;2022-12-07T13:03:22;100293.97;;;4.49;100.00
18022;BME280;9136;48.822;7.966;2022-12-07T13:06:18;100320.84;;;4.51;100.00
18022;BME280;9136;48.822;7.966;2022-12-07T13:09:19;100297.47;;;4.42;100.00
18022;BME280;9136;48.822;7.966;2022-12-07T13:12:13;100295.66;;;4.58;100.00
18022;BME280;9136;48.822;7.966;2022-12-07T13:15:03;100287.06;;;4.47;100.00
18022;BME280;9136;48.822;7.966;2022-12-07T13:18:00;100288.81;;;4.43;100.00
18022;BME280;9136;48.822;7.966;2022-12-07T13:20:53;100278.44;;;4.39;100.00
18022;BME280;9136;48.822;7.966;2022-12-07T13:23:54;100280.16;;;4.44;100.00
18022;BME280;9136;48.822;7.966;2022-12-07T13:26:45;100297.34;;;4.65;100.00
18022;BME280;9136;48.822;7.966;2022-12-07T13:29:36;100288.06;;;4.26;100.00
18022;BME280;9136;48.822;7.966;2022-12-07T13:32:28;100274.19;;;4.24;100.00
18022;BME280;9136;48.822;7.966;2022-12-07T13:35:31;100254.38;;;4.09;100.00
18022;BME280;9136;48.822;7.966;2022-12-07T13:38:31;100259.53;;;4.17;100.00
18022;BME280;9136;48.822;7.966;2022-12-07T13:41:21;100272.41;;;4.30;100.00
18022;BME280;9136;48.822;7.966;2022-12-07T13:44:12;100256.88;;;4.26;100.00
18022;BME280;9136;48.822;7.966;2022-12-07T13:47:05;100280.94;;;4.52;100.00
18022;BME280;9136;48.822;7.966;2022-12-07T13:49:58;100261.84;;;4.53;100.00
18022;BME280;9136;48.822;7.966;2022-12-07T13:52:46;100255.13;;;4.22;100.00
18022;BME280;9136;48.822;7.966;2022-12-07T13:55:35;100273.31;;;4.23;100.00
18022;BME280;9136;48.822;7.966;2022-12-07T13:58:23;100277.56;;;4.40;100.00
18022;BME280;9136;48.822;7.966;2022-12-07T14:01:11;100263.78;;;4.24;100.00
18022;BME280;9136;48.822;7.966;2022-12-07T14:04:18;100268.19;;;4.16;100.00
18022;BME280;9136;48.822;7.966;2022-12-07T14:07:26;100260.53;;;3.88;100.00
18022;BME280;9136;48.822;7.966;2022-12-07T14:10:23;100249.25;;;3.91;100.00
18022;BME280;9136;48.822;7.966;2022-12-07T14:13:27;100252.66;;;4.02;100.00
18022;BME280;9136;48.822;7.966;2022-12-07T14:16:24;100258.66;;;4.16;100.00
18022;BME280;9136;48.822;7.966;2022-12-07T14:19:41;100256.78;;;4.38;100.00
18022;BME280;9136;48.822;7.966;2022-12-07T14:22:33;100261.03;;;4.50;100.00
18022;BME280;9136;48.822;7.966;2022-12-07T14:25:23;100265.34;;;4.49;100.00
18022;BME280;9136;48.822;7.966;2022-12-07T14:28:25;100283.66;;;4.39;100.00
18022;BME280;9136;48.822;7.966;2022-12-07T14:31:15;100252.56;;;4.14;100.00
18022;BME280;9136;48.822;7.966;2022-12-07T14:34:03;100268.13;;;4.23;100.00
18022;BME280;9136;48.822;7.966;2022-12-07T14:36:51;100260.44;;;4.10;100.00
18022;BME280;9136;48.822;7.966;2022-12-07T14:39:40;100275.94;;;4.22;100.00
18022;BME280;9136;48.822;7.966;2022-12-07T14:42:29;100273.38;;;4.14;100.00
18022;BME280;9136;48.822;7.966;2022-12-07T14:45:19;100276.84;;;4.15;100.00
18022;BME280;9136;48.822;7.966;2022-12-07T14:48:08;100246.63;;;4.00;100.00
18022;BME280;9136;48.822;7.966;2022-12-07T14:50:58;100269.91;;;4.14;100.00
18022;BME280;9136;48.822;7.966;2022-12-07T14:53:48;100261.38;;;3.96;100.00
18022;BME280;9136;48.822;7.966;2022-12-07T14:56:38;100259.66;;;3.92;100.00
18022;BME280;9136;48.822;7.966;2022-12-07T14:59:25;100281.22;;;4.11;100.00
18022;BME280;9136;48.822;7.966;2022-12-07T15:02:14;100250.88;;;4.12;100.00
18022;BME280;9136;48.822;7.966;2022-12-07T15:05:03;100257.72;;;4.28;100.00
18022;BME280;9136;48.822;7.966;2022-12-07T15:07:51;100236.06;;;4.23;100.00
18022;BME280;9136;48.822;7.966;2022-12-07T15:10:39;100235.19;;;4.24;100.00
18022;BME280;9136;48.822;7.966;2022-12-07T15:13:29;100247.31;;;4.28;100.00
18022;BME280;9136;48.822;7.966;2022-12-07T15:16:35;100261.97;;;4.38;100.00
18022;BME280;9136;48.822;7.966;2022-12-07T15:19:24;100272.34;;;4.43;100.00
18022;BME280;9136;48.822;7.966;2022-12-07T15:22:13;100247.38;;;4.19;100.00
18022;BME280;9136;48.822;7.966;2022-12-07T15:25:01;100246.59;;;4.01;100.00
18022;BME280;9136;48.822;7.966;2022-12-07T15:27:50;100241.44;;;3.95;100.00
18022;BME280;9136;48.822;7.966;2022-12-07T15:30:39;100268.28;;;3.99;100.00